Time;durP1;ratioP1;P1;durP2;ratioP2;P2;SDS_P1;SDS_P2;PMS_P1;PMS_P2;Temp;Humidity;BMP_temperature;BMP_pressure;BME280_temperature;BME280_humidity;BME280_pressure;Samples;Min_cycle;Max_cycle;Signal;HPM_P1;HPM_P2
2022/05/07 00:00:24;;;;;;;8.23;6.63;;;14.00;99.90;;;;;;5113320;28;20249;-61
2022/05/07 00:02:50;;;;;;;8.55;6.30;;;14.00;99.90;;;;;;5113084;28;20221;-61
2022/05/07 00:05:15;;;;;;;8.07;6.65;;;13.90;99.90;;;;;;5112947;28;20189;-62
2022/05/07 00:07:41;;;;;;;7.55;6.65;;;13.90;99.90;;;;;;5113181;28;20166;-62
2022/05/07 00:10:07;;;;;;;9.27;6.88;;;13.90;99.90;;;;;;5113171;28;20507;-62
2022/05/07 00:12:33;;;;;;;8.55;6.30;;;13.90;99.90;;;;;;5113035;28;20285;-61
2022/05/07 00:14:59;;;;;;;8.10;6.05;;;14.00;99.90;;;;;;5113693;28;20256;-61
2022/05/07 00:20:09;;;;;;;6.55;5.10;;;14.10;99.90;;;;;;5116973;28;20211;-62
2022/05/07 00:22:35;;;;;;;6.43;4.80;;;14.20;99.90;;;;;;5116770;28;20248;-62
2022/05/07 00:25:02;;;;;;;6.65;5.15;;;14.20;99.90;;;;;;5116626;28;20205;-61
2022/05/07 00:27:28;;;;;;;7.35;5.40;;;14.20;99.90;;;;;;5116763;28;20256;-61
2022/05/07 00:29:53;;;;;;;7.22;5.65;;;14.20;99.90;;;;;;5116457;28;20705;-61
2022/05/07 00:32:19;;;;;;;7.00;5.35;;;14.20;99.90;;;;;;5116616;28;20197;-61
2022/05/07 00:34:45;;;;;;;7.10;5.88;;;14.20;99.90;;;;;;5116112;28;20256;-61
2022/05/07 00:37:10;;;;;;;8.20;6.00;;;14.10;99.90;;;;;;5116450;28;20177;-62
2022/05/07 00:39:36;;;;;;;7.25;5.57;;;14.10;99.90;;;;;;5116338;28;20578;-61
2022/05/07 00:42:03;;;;;;;7.55;6.05;;;14.00;99.90;;;;;;5116155;28;20181;-61
2022/05/07 00:44:29;;;;;;;7.00;5.57;;;14.00;99.90;;;;;;5116136;28;20530;-62
2022/05/07 00:47:15;;;;;;;8.50;6.05;;;14.00;99.90;;;;;;5116332;27;20170;-61
2022/05/07 00:49:43;;;;;;;6.47;5.65;;;14.10;99.90;;;;;;5116081;28;20671;-62
2022/05/07 00:52:09;;;;;;;9.73;5.85;;;14.00;99.90;;;;;;5116137;28;20177;-61
2022/05/07 00:54:34;;;;;;;7.82;6.22;;;14.10;99.90;;;;;;5115899;28;20178;-61
2022/05/07 00:57:00;;;;;;;8.10;6.53;;;14.00;99.90;;;;;;5116037;28;20226;-61
2022/05/07 00:59:26;;;;;;;7.15;6.15;;;14.10;99.90;;;;;;5115892;28;20653;-61
2022/05/07 01:01:52;;;;;;;7.15;6.03;;;14.10;99.90;;;;;;5115993;28;20170;-61
2022/05/07 01:04:17;;;;;;;6.82;5.65;;;14.00;99.90;;;;;;5115651;28;20181;-61
2022/05/07 01:06:45;;;;;;;7.15;5.57;;;14.00;99.90;;;;;;5115796;28;20197;-61
2022/05/07 01:09:11;;;;;;;5.97;5.00;;;14.00;99.90;;;;;;5115688;28;20165;-61
2022/05/07 01:11:40;;;;;;;7.57;5.43;;;14.00;99.90;;;;;;5115837;28;20170;-61
2022/05/07 01:14:05;;;;;;;5.10;4.35;;;14.00;99.90;;;;;;5115795;28;20168;-61
2022/05/07 01:16:31;;;;;;;7.40;5.10;;;14.00;99.90;;;;;;5115698;28;20205;-61
2022/05/07 01:18:57;;;;;;;5.45;4.53;;;14.10;99.90;;;;;;5115613;28;20227;-61
2022/05/07 01:21:23;;;;;;;5.47;3.72;;;14.00;99.90;;;;;;5114618;28;20582;-61
2022/05/07 01:23:48;;;;;;;5.85;4.22;;;14.00;99.90;;;;;;5114194;28;20623;-61
2022/05/07 01:26:16;;;;;;;6.40;4.20;;;14.10;99.90;;;;;;5115595;28;20174;-61
2022/05/07 01:28:42;;;;;;;5.53;4.32;;;14.00;99.90;;;;;;5115451;28;20210;-61
2022/05/07 01:31:08;;;;;;;4.35;3.72;;;14.00;99.90;;;;;;5115442;28;20544;-61
2022/05/07 01:33:34;;;;;;;6.22;3.97;;;14.00;99.90;;;;;;5115316;28;20161;-60
2022/05/07 01:36:07;;;;;;;4.45;3.83;;;14.00;99.90;;;;;;5115119;28;20346;-62
2022/05/07 01:38:32;;;;;;;5.35;4.20;;;13.90;99.90;;;;;;5115128;28;20288;-61
2022/05/07 01:40:59;;;;;;;6.53;3.92;;;13.90;99.90;;;;;;5115272;28;20260;-61
2022/05/07 01:43:27;;;;;;;4.60;4.07;;;13.90;99.90;;;;;;5115234;28;20628;-61
2022/05/07 01:45:54;;;;;;;5.50;4.18;;;13.80;99.90;;;;;;5115112;28;20710;-61
2022/05/07 01:48:20;;;;;;;6.30;3.95;;;13.80;99.90;;;;;;5114956;28;20169;-61
2022/05/07 01:50:46;;;;;;;7.90;4.85;;;13.70;99.90;;;;;;5114860;28;20173;-61
2022/05/07 01:53:13;;;;;;;6.43;4.20;;;13.70;99.90;;;;;;5115139;28;20635;-61
2022/05/07 01:55:39;;;;;;;6.88;4.95;;;13.60;99.90;;;;;;5114928;28;20229;-61
2022/05/07 01:58:05;;;;;;;5.95;4.07;;;13.50;99.90;;;;;;5114440;28;20178;-61
2022/05/07 02:00:31;;;;;;;5.90;4.05;;;13.40;99.90;;;;;;5114704;28;20180;-61
2022/05/07 02:02:58;;;;;;;5.68;4.68;;;13.40;99.90;;;;;;5114239;28;20195;-61
2022/05/07 02:05:25;;;;;;;6.10;4.53;;;13.40;99.90;;;;;;5114467;28;20197;-61
2022/05/07 02:07:51;;;;;;;5.45;4.30;;;13.30;99.90;;;;;;5113616;28;20177;-61
2022/05/07 02:10:17;;;;;;;6.72;4.80;;;13.20;99.90;;;;;;5114551;28;20201;-61
2022/05/07 02:12:42;;;;;;;5.93;4.32;;;13.20;99.90;;;;;;5114653;28;20665;-61
2022/05/07 02:15:09;;;;;;;4.88;4.28;;;13.20;99.90;;;;;;5114475;28;20193;-61
2022/05/07 02:17:34;;;;;;;5.22;3.80;;;13.20;99.90;;;;;;5114467;28;20204;-61
2022/05/07 02:20:02;;;;;;;4.72;3.70;;;13.20;99.90;;;;;;5114292;28;20197;-61
2022/05/07 02:22:27;;;;;;;5.00;4.15;;;13.20;99.90;;;;;;5114498;28;20173;-61
2022/05/07 02:24:53;;;;;;;5.82;4.18;;;13.20;99.90;;;;;;5114350;28;20245;-61
2022/05/07 02:27:19;;;;;;;5.25;3.70;;;13.20;99.90;;;;;;5114388;28;20579;-61
2022/05/07 02:29:44;;;;;;;5.97;3.85;;;13.10;99.90;;;;;;5114262;28;20214;-61
2022/05/07 02:32:13;;;;;;;4.97;3.83;;;13.10;99.90;;;;;;5114082;28;20176;-61
2022/05/07 02:34:40;;;;;;;5.47;3.63;;;13.10;99.90;;;;;;5114107;28;20185;-61
2022/05/07 02:37:06;;;;;;;5.47;3.90;;;13.10;99.90;;;;;;5112922;28;20260;-61
2022/05/07 02:39:32;;;;;;;6.18;4.03;;;13.10;99.90;;;;;;5113702;28;20626;-61
2022/05/07 02:44:43;;;;;;;4.75;3.92;;;13.00;99.90;;;;;;5114229;28;20242;-61
2022/05/07 02:47:09;;;;;;;4.90;3.90;;;13.00;99.90;;;;;;5113835;28;20557;-61
2022/05/07 02:49:35;;;;;;;5.28;4.00;;;12.90;99.90;;;;;;5112732;28;20234;-60
2022/05/07 02:52:01;;;;;;;4.05;3.40;;;12.90;99.90;;;;;;5113982;28;20216;-61
2022/05/07 02:54:27;;;;;;;4.63;3.55;;;12.90;99.90;;;;;;5113913;28;20177;-61
2022/05/07 02:56:54;;;;;;;4.20;3.00;;;12.90;99.90;;;;;;5113708;28;20304;-61
2022/05/07 02:59:20;;;;;;;4.18;3.25;;;12.80;99.90;;;;;;5113755;28;20180;-61
2022/05/07 03:01:45;;;;;;;3.50;3.00;;;12.80;99.90;;;;;;5113165;28;20181;-61
2022/05/07 03:04:11;;;;;;;3.55;2.67;;;12.70;99.90;;;;;;5113888;28;20188;-61
2022/05/07 03:06:37;;;;;;;3.83;3.38;;;12.70;99.90;;;;;;5113412;28;20580;-61
2022/05/07 03:09:03;;;;;;;4.72;3.35;;;12.80;99.90;;;;;;5113750;28;20173;-61
2022/05/07 03:11:33;;;;;;;4.13;2.92;;;12.80;99.90;;;;;;5113638;28;20177;-61
2022/05/07 03:13:59;;;;;;;4.30;3.28;;;12.80;99.90;;;;;;5113552;28;20197;-61
2022/05/07 03:16:25;;;;;;;3.38;2.95;;;12.80;99.90;;;;;;5113418;28;20214;-61
2022/05/07 03:18:50;;;;;;;4.07;3.35;;;12.70;99.90;;;;;;5113529;28;20177;-61
2022/05/07 03:21:16;;;;;;;4.88;3.17;;;12.70;99.90;;;;;;5113700;28;20181;-61
2022/05/07 03:23:44;;;;;;;4.43;3.22;;;12.70;99.90;;;;;;5113612;28;20538;-61
2022/05/07 03:26:11;;;;;;;5.38;3.45;;;12.70;99.90;;;;;;5113550;28;20177;-60
2022/05/07 03:28:37;;;;;;;5.25;3.78;;;12.60;99.90;;;;;;5113367;28;20177;-61
2022/05/07 03:31:03;;;;;;;4.90;3.28;;;12.60;99.90;;;;;;5113412;28;20169;-61
2022/05/07 03:33:29;;;;;;;5.10;3.03;;;12.60;99.90;;;;;;5113510;28;20707;-61
2022/05/07 03:35:55;;;;;;;4.90;3.15;;;12.60;99.90;;;;;;5112168;28;20197;-61
2022/05/07 03:38:22;;;;;;;5.47;3.30;;;12.50;99.90;;;;;;5113366;28;20243;-61
2022/05/07 03:40:48;;;;;;;4.55;3.38;;;12.50;99.90;;;;;;5113363;28;20189;-61
2022/05/07 03:43:14;;;;;;;4.50;2.95;;;12.40;99.90;;;;;;5113199;28;20166;-61
2022/05/07 03:45:39;;;;;;;4.80;3.28;;;12.40;99.90;;;;;;5113567;28;20180;-61
2022/05/07 03:48:06;;;;;;;4.93;3.28;;;12.40;99.90;;;;;;5113496;28;20229;-61
2022/05/07 03:50:31;;;;;;;4.55;3.22;;;12.30;99.90;;;;;;5115215;28;20180;-61
2022/05/07 03:53:42;;;;;;;6.00;3.78;;;12.30;99.90;;;;;;5117170;28;20627;-61
2022/05/07 03:55:43;;;;;;;4.90;4.13;;;12.30;99.90;;;;;;5105253;28;20217;-61
2022/05/07 03:58:15;;;;;;;4.72;3.08;;;12.30;99.90;;;;;;5117047;28;20264;-61
2022/05/07 04:00:42;;;;;;;4.70;2.97;;;12.30;99.90;;;;;;5116234;28;20173;-61
2022/05/07 04:03:08;;;;;;;4.53;3.42;;;12.30;99.90;;;;;;5117120;28;20169;-61
2022/05/07 04:05:34;;;;;;;5.90;3.85;;;12.30;99.90;;;;;;5116885;28;20201;-61
2022/05/07 04:08:00;;;;;;;5.20;3.53;;;12.40;99.90;;;;;;5116950;28;20173;-61
2022/05/07 04:10:25;;;;;;;5.53;4.00;;;12.40;99.90;;;;;;5116793;28;20538;-61
2022/05/07 04:12:51;;;;;;;4.40;3.15;;;12.30;99.90;;;;;;5115784;28;20169;-61
2022/05/07 04:15:18;;;;;;;5.80;3.42;;;12.30;99.90;;;;;;5116897;28;20261;-61
2022/05/07 04:17:43;;;;;;;4.45;3.28;;;12.30;99.90;;;;;;5116619;28;20654;-61
2022/05/07 04:20:11;;;;;;;4.68;3.30;;;12.30;99.90;;;;;;5116727;28;20169;-61
2022/05/07 04:22:37;;;;;;;6.55;3.65;;;12.30;99.90;;;;;;5116767;28;20169;-61
2022/05/07 04:25:07;;;;;;;4.28;3.15;;;12.30;99.90;;;;;;5116574;28;20207;-61
2022/05/07 04:27:33;;;;;;;4.38;3.60;;;12.30;99.90;;;;;;5117043;28;20335;-61
2022/05/07 04:29:59;;;;;;;5.75;4.03;;;12.40;99.90;;;;;;5116578;28;20208;-61
2022/05/07 04:32:27;;;;;;;5.65;4.07;;;12.40;99.90;;;;;;5116553;28;20224;-61
2022/05/07 04:34:57;;;;;;;6.38;3.72;;;12.40;99.90;;;;;;5116650;28;20177;-61
2022/05/07 04:37:23;;;;;;;7.05;4.40;;;12.40;99.90;;;;;;5116335;28;20204;-60
2022/05/07 04:39:49;;;;;;;5.05;3.70;;;12.40;99.90;;;;;;5116288;28;20260;-61
2022/05/07 04:42:14;;;;;;;6.40;4.07;;;12.40;99.90;;;;;;5116446;28;20208;-61
2022/05/07 04:44:40;;;;;;;5.80;3.92;;;12.40;99.90;;;;;;5116323;28;20188;-61
2022/05/07 04:47:06;;;;;;;6.65;4.15;;;12.40;99.90;;;;;;5116551;28;20526;-61
2022/05/07 04:49:33;;;;;;;7.45;4.40;;;12.40;99.90;;;;;;5116147;28;20630;-61
2022/05/07 04:51:59;;;;;;;5.18;4.03;;;12.40;99.90;;;;;;5115979;28;20169;-60
2022/05/07 04:54:24;;;;;;;5.57;3.85;;;12.40;99.90;;;;;;5116224;28;20179;-60
2022/05/07 04:56:52;;;;;;;7.13;4.90;;;12.50;99.90;;;;;;5115837;28;20238;-60
2022/05/07 04:59:19;;;;;;;7.15;4.15;;;12.50;99.90;;;;;;5116243;28;20184;-63
2022/05/07 05:01:45;;;;;;;6.18;4.32;;;12.50;99.90;;;;;;5114228;28;20173;-62
2022/05/07 05:04:11;;;;;;;6.35;4.43;;;12.50;99.90;;;;;;5115868;28;20196;-61
2022/05/07 05:06:37;;;;;;;7.10;4.90;;;12.50;99.90;;;;;;5115715;28;20181;-61
2022/05/07 05:09:07;;;;;;;7.18;5.00;;;12.50;99.90;;;;;;5114547;28;20188;-62
2022/05/07 05:11:37;;;;;;;8.30;5.00;;;12.50;99.90;;;;;;5115935;28;20181;-61
2022/05/07 05:15:01;;;;;;;7.30;5.00;;;12.50;99.90;;;;;;5115597;28;20272;-62
2022/05/07 05:16:49;;;;;;;8.10;4.88;;;12.60;99.90;;;;;;5115359;28;20221;-61
2022/05/07 05:19:14;;;;;;;6.95;5.10;;;12.60;99.90;;;;;;5115582;28;20600;-62
2022/05/07 05:21:41;;;;;;;6.93;4.85;;;12.60;99.90;;;;;;5115494;28;20216;-62
2022/05/07 05:24:07;;;;;;;6.97;4.25;;;12.60;99.90;;;;;;5115629;28;20173;-61
2022/05/07 05:26:33;;;;;;;8.35;5.20;;;12.70;99.90;;;;;;5115530;28;20237;-61
2022/05/07 05:28:58;;;;;;;7.05;4.68;;;12.70;99.90;;;;;;5115414;28;20170;-61
2022/05/07 05:31:24;;;;;;;7.57;5.10;;;12.70;99.90;;;;;;5115333;28;20208;-62
2022/05/07 05:33:50;;;;;;;7.82;5.07;;;12.70;99.90;;;;;;5114924;28;20573;-61
2022/05/07 05:36:16;;;;;;;7.18;4.95;;;12.80;99.90;;;;;;5115089;28;20205;-62
2022/05/07 05:38:41;;;;;;;9.68;6.03;;;12.80;99.90;;;;;;5114996;28;20182;-61
2022/05/07 05:41:07;;;;;;;7.75;5.10;;;12.90;99.90;;;;;;5115242;28;20243;-61
2022/05/07 05:43:33;;;;;;;8.70;4.90;;;12.90;99.90;;;;;;5113808;28;20184;-62
2022/05/07 05:45:59;;;;;;;6.78;4.93;;;12.90;99.90;;;;;;5114947;28;20261;-62
2022/05/07 05:48:29;;;;;;;6.50;5.22;;;13.00;99.90;;;;;;5115080;28;20646;-62
2022/05/07 05:50:55;;;;;;;8.23;5.22;;;13.00;99.90;;;;;;5115002;28;20256;-61
2022/05/07 05:53:20;;;;;;;7.55;5.60;;;13.10;99.90;;;;;;5114998;28;20253;-61
2022/05/07 05:55:47;;;;;;;9.60;5.75;;;13.20;99.90;;;;;;5114850;28;20209;-61
2022/05/07 05:58:13;;;;;;;9.07;5.18;;;13.20;99.90;;;;;;5114721;28;20585;-61
2022/05/07 06:00:39;;;;;;;7.70;5.38;;;13.20;99.90;;;;;;5114646;28;20172;-61
2022/05/07 06:03:05;;;;;;;8.95;5.47;;;13.30;99.90;;;;;;5113544;28;20684;-61
2022/05/07 06:05:30;;;;;;;8.98;5.40;;;13.40;99.90;;;;;;5114649;28;20215;-62
2022/05/07 06:07:56;;;;;;;10.70;6.05;;;13.50;99.90;;;;;;5114627;28;20183;-61
2022/05/07 06:10:22;;;;;;;8.98;6.07;;;13.60;99.90;;;;;;5114593;28;20169;-62
2022/05/07 06:12:48;;;;;;;10.93;6.00;;;13.80;99.90;;;;;;5113677;28;20702;-62
2022/05/07 06:15:13;;;;;;;9.35;5.90;;;14.10;99.90;;;;;;5114275;27;20213;-62
2022/05/07 06:17:39;;;;;;;8.00;5.38;;;14.30;99.90;;;;;;5114415;28;20298;-62
2022/05/07 06:20:05;;;;;;;8.18;5.57;;;14.30;99.90;;;;;;5114617;28;20321;-63
2022/05/07 06:22:31;;;;;;;8.02;5.25;;;14.20;99.90;;;;;;5113248;28;20697;-63
2022/05/07 06:27:42;;;;;;;8.27;5.55;;;14.00;99.90;;;;;;5112978;28;20233;-63
2022/05/07 06:30:08;;;;;;;8.35;5.20;;;13.90;99.90;;;;;;5113879;28;20634;-62
2022/05/07 06:32:42;;;;;;;9.73;5.97;;;14.00;99.90;;;;;;5114176;28;20298;-63
2022/05/07 06:35:09;;;;;;;8.90;6.47;;;14.10;99.90;;;;;;5113701;28;20658;-63
2022/05/07 06:37:37;;;;;;;12.60;6.10;;;14.20;99.90;;;;;;5112775;28;20188;-62
2022/05/07 06:40:05;;;;;;;9.88;6.47;;;14.30;99.90;;;;;;5113909;28;20177;-63
2022/05/07 06:42:34;;;;;;;10.07;6.55;;;14.50;99.90;;;;;;5113571;28;20199;-63
2022/05/07 06:44:59;;;;;;;9.82;6.25;;;14.70;99.90;;;;;;5113945;28;20564;-63
2022/05/07 06:47:26;;;;;;;9.63;6.10;;;14.90;99.90;;;;;;5113998;28;20180;-63
2022/05/07 06:49:51;;;;;;;9.85;6.68;;;15.20;99.90;;;;;;5112702;28;20181;-63
2022/05/07 06:52:18;;;;;;;10.73;6.80;;;15.40;99.90;;;;;;5112569;28;20170;-62
2022/05/07 06:54:44;;;;;;;9.50;5.93;;;15.70;99.90;;;;;;5113182;28;20173;-63
2022/05/07 06:57:10;;;;;;;9.85;6.05;;;15.90;99.90;;;;;;5113329;28;20185;-63
2022/05/07 06:59:36;;;;;;;9.73;6.10;;;16.00;99.90;;;;;;5113663;28;20550;-63
2022/05/07 07:02:02;;;;;;;9.65;6.10;;;16.10;99.90;;;;;;5113619;28;20185;-63
2022/05/07 07:04:28;;;;;;;9.65;6.00;;;16.30;99.90;;;;;;5112061;28;20214;-63
2022/05/07 07:06:54;;;;;;;10.43;6.63;;;16.40;99.90;;;;;;5113489;28;20200;-62
2022/05/07 07:09:20;;;;;;;10.13;6.13;;;16.40;99.90;;;;;;5113487;28;20165;-63
2022/05/07 07:11:45;;;;;;;10.82;6.65;;;16.70;99.90;;;;;;5113349;28;20184;-63
2022/05/07 07:14:11;;;;;;;11.80;7.05;;;16.90;99.90;;;;;;5113377;28;20169;-63
2022/05/07 07:16:37;;;;;;;8.95;5.53;;;16.80;99.90;;;;;;5113314;28;20232;-63
2022/05/07 07:19:04;;;;;;;7.85;5.30;;;16.70;99.90;;;;;;5113349;28;20216;-63
2022/05/07 07:21:29;;;;;;;10.57;6.40;;;16.60;99.90;;;;;;5113278;28;20609;-63
2022/05/07 07:23:55;;;;;;;9.00;5.43;;;16.40;99.90;;;;;;5112891;28;20264;-63
2022/05/07 07:26:21;;;;;;;8.65;5.65;;;16.50;99.90;;;;;;5117307;28;20189;-63
2022/05/07 07:28:47;;;;;;;12.13;7.07;;;16.50;99.90;;;;;;5116470;28;20189;-63
2022/05/07 07:31:13;;;;;;;10.00;6.78;;;16.70;99.90;;;;;;5102180;27;20567;-63
2022/05/07 07:33:41;;;;;;;9.27;5.90;;;17.20;99.90;;;;;;5095843;28;20243;-63
2022/05/07 07:36:08;;;;;;;11.32;6.72;;;17.40;99.90;;;;;;5096316;28;20326;-63
2022/05/07 07:38:35;;;;;;;9.10;6.07;;;17.20;99.90;;;;;;5094873;28;20670;-63
2022/05/07 07:41:02;;;;;;;8.60;5.50;;;17.30;99.90;;;;;;5096837;28;20185;-63
2022/05/07 07:43:28;;;;;;;9.98;5.90;;;17.30;99.90;;;;;;5097128;28;20257;-62
2022/05/07 07:48:39;;;;;;;9.70;5.95;;;17.20;99.90;;;;;;5096193;28;20666;-63
2022/05/07 07:51:04;;;;;;;9.55;5.80;;;17.00;99.90;;;;;;5095781;28;20170;-62
2022/05/07 07:53:30;;;;;;;8.52;5.93;;;17.00;99.90;;;;;;5096831;28;20177;-63
2022/05/07 07:55:56;;;;;;;8.48;4.90;;;17.00;99.90;;;;;;5096654;28;20254;-63
2022/05/07 07:58:21;;;;;;;7.20;4.90;;;16.90;99.90;;;;;;5096944;28;20252;-63
2022/05/07 08:00:47;;;;;;;8.25;5.93;;;16.90;99.90;;;;;;5096671;28;20228;-63
2022/05/07 08:03:18;;;;;;;10.40;6.43;;;16.90;99.90;;;;;;5096611;28;20186;-63
2022/05/07 08:05:46;;;;;;;9.52;6.28;;;17.10;99.90;;;;;;5096241;28;20296;-63
2022/05/07 08:13:43;;;;;;;8.77;5.57;;;17.30;99.90;;;;;;5096749;28;20250;-63
2022/05/07 08:16:10;;;;;;;8.80;5.55;;;17.40;99.90;;;;;;5096195;28;20222;-63
2022/05/07 08:18:36;;;;;;;10.85;6.57;;;17.50;99.90;;;;;;5095427;28;20588;-63
2022/05/07 08:21:03;;;;;;;9.95;5.72;;;17.60;99.90;;;;;;5095257;28;20173;-63
2022/05/07 08:23:29;;;;;;;7.93;5.50;;;17.60;99.90;;;;;;5096383;28;20174;-63
2022/05/07 08:25:55;;;;;;;9.18;6.35;;;17.50;99.90;;;;;;5096403;28;20177;-63
2022/05/07 08:28:23;;;;;;;7.20;5.32;;;17.50;99.90;;;;;;5096197;28;20623;-63
2022/05/07 08:30:49;;;;;;;9.10;5.88;;;17.40;99.90;;;;;;5095956;28;20174;-63
2022/05/07 08:33:17;;;;;;;9.68;6.28;;;17.50;99.90;;;;;;5096275;28;20170;-63
2022/05/07 08:35:43;;;;;;;8.90;5.50;;;17.60;99.90;;;;;;5093712;28;20285;-63
2022/05/07 08:38:09;;;;;;;9.65;5.80;;;18.00;99.90;;;;;;5096072;28;20205;-63
2022/05/07 08:40:34;;;;;;;9.30;5.78;;;18.20;99.90;;;;;;5096268;28;20202;-63
2022/05/07 08:43:02;;;;;;;9.32;6.00;;;18.40;99.90;;;;;;5095892;28;20214;-63
2022/05/07 08:45:27;;;;;;;10.98;5.90;;;18.50;99.90;;;;;;5094391;28;20174;-64
2022/05/07 08:47:53;;;;;;;10.65;5.75;;;18.50;99.90;;;;;;5095674;28;20692;-64
2022/05/07 08:50:20;;;;;;;8.35;5.57;;;18.70;99.90;;;;;;5095883;28;20170;-63
2022/05/07 08:52:46;;;;;;;11.40;6.32;;;18.90;99.90;;;;;;5095847;28;20170;-64
2022/05/07 08:55:14;;;;;;;9.55;6.05;;;18.90;99.90;;;;;;5095687;28;20540;-64
2022/05/07 08:57:41;;;;;;;8.23;5.60;;;19.10;99.90;;;;;;5095662;28;20169;-64
2022/05/07 09:00:11;;;;;;;8.35;5.43;;;19.30;99.90;;;;;;5095454;28;20189;-63
2022/05/07 09:02:44;;;;;;;10.27;5.80;;;19.30;99.90;;;;;;5095723;28;20166;-64
2022/05/07 09:05:11;;;;;;;6.80;4.75;;;19.70;99.90;;;;;;5095675;28;20197;-64
2022/05/07 09:07:54;;;;;;;8.70;5.85;;;20.00;99.90;;;;;;5095518;28;20266;-64
2022/05/07 09:10:23;;;;;;;9.00;5.90;;;19.90;99.90;;;;;;5095365;28;20181;-63
2022/05/07 09:12:49;;;;;;;10.13;5.63;;;19.70;99.90;;;;;;5095511;28;20565;-64
2022/05/07 09:15:15;;;;;;;7.70;5.40;;;19.70;99.90;;;;;;5095407;28;20296;-64
2022/05/07 09:17:41;;;;;;;6.90;4.88;;;19.60;99.90;;;;;;5095374;28;20178;-64
2022/05/07 09:20:20;;;;;;;8.70;5.25;;;19.60;99.90;;;;;;5095206;28;20178;-63
2022/05/07 09:22:56;;;;;;;7.35;4.90;;;19.50;99.90;;;;;;5095181;28;20174;-64
2022/05/07 09:25:24;;;;;;;7.07;4.63;;;19.70;99.90;;;;;;5095355;28;20169;-64
2022/05/07 09:27:51;;;;;;;8.30;5.07;;;19.90;99.90;;;;;;5095143;28;20204;-64
2022/05/07 09:30:35;;;;;;;6.80;4.50;;;19.80;99.90;;;;;;5095083;28;20259;-64
2022/05/07 09:33:00;;;;;;;8.40;4.60;;;20.10;99.90;;;;;;5095016;28;20180;-64
2022/05/07 09:38:13;;;;;;;4.65;3.40;;;20.70;99.90;;;;;;5095142;28;20188;-64
2022/05/07 09:40:43;;;;;;;5.80;4.05;;;20.20;99.90;;;;;;5094883;28;20177;-64
2022/05/07 09:43:10;;;;;;;7.00;4.15;;;19.80;99.90;;;;;;5094749;28;20209;-64
2022/05/07 09:45:38;;;;;;;4.88;3.90;;;19.50;99.90;;;;;;5094684;28;20174;-64
2022/05/07 09:48:08;;;;;;;7.75;4.10;;;19.90;99.90;;;;;;5093430;28;20728;-64
2022/05/07 09:58:43;;;;;;;6.47;4.40;;;21.60;99.90;;;;;;5094536;28;20204;-64
2022/05/07 10:01:25;;;;;;;4.60;3.75;;;21.50;99.90;;;;;;5094530;28;20188;-64
2022/05/07 10:03:57;;;;;;;5.55;3.90;;;21.30;99.90;;;;;;5094253;28;20546;-64
2022/05/07 10:06:40;;;;;;;5.35;3.70;;;21.10;99.90;;;;;;5094333;28;20174;-63
2022/05/07 10:09:25;;;;;;;5.43;3.88;;;20.90;99.90;;;;;;5094171;28;20619;-63
2022/05/07 10:11:53;;;;;;;6.22;4.00;;;21.10;99.90;;;;;;5094281;28;20197;-64
2022/05/07 10:14:30;;;;;;;4.95;3.40;;;21.20;99.90;;;;;;5094240;28;20260;-64
2022/05/07 10:17:20;;;;;;;5.50;3.85;;;21.20;99.90;;;;;;5093975;28;20554;-63
2022/05/07 10:19:49;;;;;;;4.97;3.67;;;21.30;99.90;;;;;;5094107;28;20182;-64
2022/05/07 10:22:21;;;;;;;5.05;3.55;;;21.60;99.90;;;;;;5093955;28;20256;-65
2022/05/07 10:24:48;;;;;;;5.35;3.67;;;21.80;99.90;;;;;;5094108;28;20181;-65
2022/05/07 10:27:31;;;;;;;5.18;3.60;;;21.70;99.90;;;;;;5093993;28;20178;-64
2022/05/07 10:30:13;;;;;;;4.70;3.33;;;21.40;99.90;;;;;;5092833;28;20571;-64
2022/05/07 10:33:02;;;;;;;5.03;3.30;;;20.90;99.90;;;;;;5094022;28;20181;-64
2022/05/07 10:35:53;;;;;;;4.75;3.17;;;21.00;99.90;;;;;;5093622;28;20216;-64
2022/05/07 10:38:38;;;;;;;6.72;3.90;;;21.00;99.90;;;;;;5093706;28;20174;-64
2022/05/07 10:41:19;;;;;;;4.15;3.38;;;20.70;99.90;;;;;;5093769;28;20662;-64
2022/05/07 10:44:02;;;;;;;4.68;3.10;;;20.60;99.90;;;;;;5093604;28;20201;-64
2022/05/07 10:46:44;;;;;;;4.57;3.30;;;20.80;99.90;;;;;;5093675;28;20174;-64
2022/05/07 10:49:11;;;;;;;5.50;3.35;;;21.10;99.90;;;;;;5093597;28;20231;-64
2022/05/07 10:51:50;;;;;;;4.90;3.20;;;21.50;99.90;;;;;;5093460;28;20174;-64
2022/05/07 10:54:24;;;;;;;5.15;3.75;;;21.70;99.90;;;;;;5093546;28;20201;-64
2022/05/07 10:56:57;;;;;;;5.07;3.72;;;21.70;99.90;;;;;;5093500;28;20312;-64
2022/05/07 10:59:25;;;;;;;5.30;3.80;;;21.60;99.90;;;;;;5098250;28;20200;-64
2022/05/07 11:01:50;;;;;;;5.22;3.55;;;21.70;99.90;;;;;;5113506;28;20195;-64
2022/05/07 11:04:22;;;;;;;4.55;3.83;;;21.60;99.90;;;;;;5113623;28;20197;-63
2022/05/07 11:06:49;;;;;;;5.82;3.47;;;21.50;99.90;;;;;;5113605;28;20185;-64
2022/05/07 11:09:17;;;;;;;5.55;3.65;;;21.30;99.90;;;;;;5113405;28;20646;-64
2022/05/07 11:11:48;;;;;;;4.70;3.70;;;21.50;99.90;;;;;;5113768;28;20265;-64
2022/05/07 11:14:32;;;;;;;5.07;3.70;;;21.40;99.90;;;;;;5113665;28;20567;-64
2022/05/07 11:17:00;;;;;;;5.97;3.30;;;21.00;99.90;;;;;;5113532;28;20201;-64
2022/05/07 11:19:36;;;;;;;3.95;3.40;;;20.70;99.90;;;;;;5113445;28;20178;-64
2022/05/07 11:22:05;;;;;;;4.32;3.22;;;20.50;99.90;;;;;;5113777;28;20219;-64
2022/05/07 11:24:32;;;;;;;5.10;3.90;;;20.20;99.90;;;;;;5113620;28;20177;-63
2022/05/07 11:27:02;;;;;;;3.90;3.10;;;20.00;99.90;;;;;;5113486;28;20177;-64
2022/05/07 11:29:29;;;;;;;6.13;3.75;;;19.90;99.90;;;;;;5113525;28;20195;-65
2022/05/07 11:32:07;;;;;;;4.95;3.78;;;20.10;99.90;;;;;;5113613;28;20169;-64
2022/05/07 11:34:42;;;;;;;5.78;3.90;;;20.20;99.90;;;;;;5113423;28;20200;-64
2022/05/07 11:37:19;;;;;;;4.70;3.45;;;20.30;99.90;;;;;;5113589;28;20584;-64
2022/05/07 11:39:47;;;;;;;4.32;3.47;;;20.50;99.90;;;;;;5113501;28;20165;-64
2022/05/07 11:42:31;;;;;;;5.82;3.88;;;20.50;99.90;;;;;;5113374;28;20169;-65
2022/05/07 11:47:58;;;;;;;4.18;3.20;;;20.70;99.90;;;;;;5113726;28;20215;-65
2022/05/07 11:50:27;;;;;;;4.03;2.78;;;21.10;99.90;;;;;;5113494;28;20219;-64
2022/05/07 11:52:53;;;;;;;3.85;2.75;;;21.40;99.90;;;;;;5113169;28;20176;-65
2022/05/07 11:55:29;;;;;;;3.75;2.92;;;21.80;99.90;;;;;;5113364;28;20209;-65
2022/05/07 11:57:58;;;;;;;4.43;3.17;;;21.90;99.90;;;;;;5113308;28;20587;-65
2022/05/07 12:00:28;;;;;;;5.95;3.08;;;21.80;99.90;;;;;;5113320;28;20174;-64
2022/05/07 12:03:03;;;;;;;5.03;2.83;;;21.30;99.90;;;;;;5113226;28;20702;-65
2022/05/07 12:05:58;;;;;;;5.38;3.42;;;20.80;99.90;;;;;;5112863;28;20193;-64
2022/05/07 12:08:30;;;;;;;4.75;3.15;;;20.40;99.90;;;;;;5099686;28;20284;-65
2022/05/07 12:10:56;;;;;;;3.88;2.75;;;20.30;99.90;;;;;;5113947;28;20166;-64
2022/05/07 12:13:24;;;;;;;4.78;3.30;;;20.40;99.90;;;;;;5116914;28;20173;-64
2022/05/07 12:18:35;;;;;;;4.38;3.33;;;21.20;99.90;;;;;;5117021;28;20180;-64
2022/05/07 12:21:01;;;;;;;5.30;4.13;;;21.30;99.90;;;;;;5116835;28;20177;-65
2022/05/07 12:31:40;;;;;;;5.22;4.03;;;22.10;99.90;;;;;;5116781;28;20178;-65
2022/05/07 12:34:05;;;;;;;5.10;3.90;;;21.70;99.90;;;;;;5116361;28;20596;-65
2022/05/07 12:36:32;;;;;;;5.93;3.90;;;21.10;99.90;;;;;;5116317;28;20229;-64
2022/05/07 12:38:59;;;;;;;4.50;3.80;;;21.10;99.90;;;;;;5116577;28;20174;-64
2022/05/07 12:41:26;;;;;;;4.57;3.53;;;21.10;99.90;;;;;;5116506;28;20629;-64
2022/05/07 12:43:53;;;;;;;4.68;3.60;;;21.20;99.90;;;;;;5116400;28;20218;-65
2022/05/07 12:46:19;;;;;;;4.50;3.28;;;21.30;99.90;;;;;;5115313;28;20541;-65
2022/05/07 12:48:45;;;;;;;6.47;4.30;;;21.40;99.90;;;;;;5116348;28;20630;-65
2022/05/07 12:51:11;;;;;;;7.90;4.60;;;21.20;99.90;;;;;;5116020;28;20638;-64
2022/05/07 12:53:37;;;;;;;10.40;6.78;;;21.00;99.90;;;;;;5116388;28;20568;-64
2022/05/07 12:56:04;;;;;;;7.10;5.38;;;20.80;99.90;;;;;;5116120;28;20197;-64
2022/05/07 12:58:30;;;;;;;6.45;4.45;;;20.50;99.90;;;;;;5116199;28;20184;-64
2022/05/07 13:00:56;;;;;;;5.97;4.55;;;20.40;99.90;;;;;;5116305;28;20173;-65
2022/05/07 13:03:21;;;;;;;5.88;4.03;;;20.20;99.90;;;;;;5115943;28;20176;-65
2022/05/07 13:05:47;;;;;;;5.25;3.75;;;19.90;99.90;;;;;;5116197;28;20192;-64
2022/05/07 13:08:14;;;;;;;4.43;3.47;;;19.90;99.90;;;;;;5115796;28;20526;-65
2022/05/07 13:10:40;;;;;;;6.13;4.10;;;20.00;99.90;;;;;;5114660;28;20169;-64
2022/05/07 13:13:06;;;;;;;6.85;3.97;;;20.20;99.90;;;;;;5115864;28;20589;-65
2022/05/07 13:15:32;;;;;;;4.97;3.47;;;20.50;99.90;;;;;;5115566;28;20201;-65
2022/05/07 13:18:01;;;;;;;4.78;3.20;;;20.70;99.90;;;;;;5115786;28;20235;-64
2022/05/07 13:20:28;;;;;;;4.13;3.05;;;20.60;99.90;;;;;;5115546;28;20574;-65
2022/05/07 13:22:54;;;;;;;4.50;3.38;;;20.90;99.90;;;;;;5115468;28;20222;-65
2022/05/07 13:25:22;;;;;;;4.63;3.00;;;21.10;99.90;;;;;;5115461;28;20177;-65
2022/05/07 13:27:48;;;;;;;4.88;3.42;;;20.80;99.90;;;;;;5115547;28;20174;-65
2022/05/07 13:30:15;;;;;;;5.28;3.28;;;20.60;99.90;;;;;;5115473;28;20166;-65